createdAt,value
2022-12-20T00:01:33.672Z,99365.88
2022-12-20T00:04:05.051Z,99359.52
2022-12-20T00:06:36.600Z,99352.61
2022-12-20T00:09:09.523Z,99358.05
2022-12-20T00:11:40.601Z,99350.52
2022-12-20T00:14:10.748Z,99345.62
2022-12-20T00:16:38.886Z,99347.48
2022-12-20T00:19:09.054Z,99350.92
2022-12-20T00:21:37.660Z,99350.76
2022-12-20T00:24:07.119Z,99353.37
2022-12-20T00:26:36.026Z,99345.05
2022-12-20T00:29:05.584Z,99336.71
2022-12-20T00:31:33.941Z,99330.63
2022-12-20T00:34:02.056Z,99337.55
2022-12-20T00:36:32.159Z,99333.61
2022-12-20T00:39:01.218Z,99337.23
2022-12-20T00:41:32.433Z,99337.23
2022-12-20T00:44:02.153Z,99340.16
2022-12-20T00:46:31.311Z,99341.16
2022-12-20T00:49:00.383Z,99348.21
2022-12-20T00:51:30.677Z,99339.85
2022-12-20T00:53:58.811Z,99327.08
2022-12-20T00:56:26.596Z,99324.67
2022-12-20T00:58:59.649Z,99324.35
2022-12-20T01:01:32.789Z,99309.47
2022-12-20T01:04:01.430Z,99297.86
2022-12-20T01:06:30.623Z,99306.22
2022-12-20T01:08:59.008Z,99310.46
2022-12-20T01:11:31.330Z,99303.91
2022-12-20T01:14:02.794Z,99300.14
2022-12-20T01:16:35.499Z,99293.77
2022-12-20T01:19:04.070Z,99287.88
2022-12-20T01:21:32.144Z,99286.07
2022-12-20T01:23:59.873Z,99290.81
2022-12-20T01:26:29.822Z,99286.88
2022-12-20T01:29:00.383Z,99279.33
2022-12-20T01:31:29.716Z,99280.83
2022-12-20T01:33:58.194Z,99281.48
2022-12-20T01:36:30.753Z,99280.67
2022-12-20T01:39:07.910Z,99274.09
2022-12-20T01:41:37.401Z,99275.25
2022-12-20T01:44:18.774Z,99277.69
2022-12-20T01:46:48.907Z,99287.17
2022-12-20T01:49:33.582Z,99281.61
2022-12-20T01:52:12.098Z,99277.03
2022-12-20T01:54:45.262Z,99283.58
2022-12-20T01:57:27.156Z,99281.43
2022-12-20T01:59:56.884Z,99278.66
2022-12-20T02:02:25.273Z,99272.27
2022-12-20T02:04:53.353Z,99260.44
2022-12-20T02:07:24.982Z,99262.06
2022-12-20T02:09:55.696Z,99245.53
2022-12-20T02:12:26.530Z,99251.89
2022-12-20T02:15:36.543Z,99249.77
2022-12-20T02:18:25.112Z,99252.05
2022-12-20T02:21:16.026Z,99245.81
2022-12-20T02:24:20.758Z,99240.41
2022-12-20T02:27:31.580Z,99237.95
2022-12-20T02:30:13.955Z,99239.37
2022-12-20T02:33:04.607Z,99227.73
2022-12-20T02:35:36.128Z,99231.33
2022-12-20T02:38:25.987Z,99237.07
2022-12-20T02:41:01.867Z,99232.45
2022-12-20T02:43:50.104Z,99237.31
2022-12-20T02:46:20.867Z,99232.57
2022-12-20T02:48:51.101Z,99229.67
2022-12-20T02:51:22.235Z,99226.52
2022-12-20T02:53:52.199Z,99224.52
2022-12-20T02:56:28.457Z,99226.67
2022-12-20T02:59:07.211Z,99222.39
2022-12-20T03:01:43.721Z,99219.77
2022-12-20T03:04:13.192Z,99218.81
2022-12-20T03:07:05.876Z,99220.92
2022-12-20T03:09:37.216Z,99220.59
2022-12-20T03:12:06.158Z,99221.89
2022-12-20T03:14:35.763Z,99210.66
2022-12-20T03:17:07.081Z,99212.33
2022-12-20T03:19:34.868Z,99218.59
2022-12-20T03:22:02.793Z,99206.65
2022-12-20T03:24:32.093Z,99216.48
2022-12-20T03:27:00.417Z,99204.88
2022-12-20T03:29:28.066Z,99199.13
2022-12-20T03:31:55.753Z,99195.05
2022-12-20T03:34:23.824Z,99199.66
2022-12-20T03:36:51.879Z,99187.38
2022-12-20T03:39:20.018Z,99191.61
2022-12-20T03:41:49.691Z,99182.44
2022-12-20T03:44:18.365Z,99188.99
2022-12-20T03:46:46.249Z,99175.92
2022-12-20T03:49:13.988Z,99167.09
2022-12-20T03:51:43.611Z,99163.05
2022-12-20T03:54:11.689Z,99165.70
2022-12-20T03:56:44.217Z,99165.73
2022-12-20T03:59:11.956Z,99167.70
2022-12-20T04:01:40.767Z,99166.77
2022-12-20T04:04:12.328Z,99167.11
2022-12-20T04:06:40.334Z,99161.22
2022-12-20T04:09:08.127Z,99161.71
2022-12-20T04:11:38.953Z,99155.35
2022-12-20T04:14:08.615Z,99160.13
2022-12-20T04:16:36.689Z,99152.08
2022-12-20T04:19:05.449Z,99151.08
2022-12-20T04:21:37.927Z,99140.60
2022-12-20T04:24:07.970Z,99140.60
2022-12-20T04:26:43.733Z,99137.02
2022-12-20T04:29:11.822Z,99138.33
2022-12-20T04:31:40.420Z,99136.55
2022-12-20T04:34:08.246Z,99140.95
2022-12-20T04:36:36.519Z,99140.13
2022-12-20T04:39:06.207Z,99137.17
2022-12-20T04:41:35.743Z,99132.59
2022-12-20T04:44:05.213Z,99134.02
2022-12-20T04:46:35.114Z,99135.17
2022-12-20T04:49:03.153Z,99133.17
2022-12-20T04:51:32.371Z,99131.21
2022-12-20T04:54:00.191Z,99130.21
2022-12-20T04:56:32.646Z,99136.27
2022-12-20T04:59:02.891Z,99126.28
2022-12-20T05:01:31.256Z,99132.45
2022-12-20T05:03:59.000Z,99138.66
2022-12-20T05:06:28.651Z,99131.95
2022-12-20T05:08:56.719Z,99127.98
2022-12-20T05:11:25.192Z,99131.38
2022-12-20T05:13:53.218Z,99132.03
2022-12-20T05:16:21.022Z,99137.39
2022-12-20T05:18:49.890Z,99136.23
2022-12-20T05:21:36.230Z,99132.45
2022-12-20T05:24:23.789Z,99134.53
2022-12-20T05:27:02.204Z,99117.95
2022-12-20T05:29:30.312Z,99125.97
2022-12-20T05:31:58.326Z,99119.72
2022-12-20T05:34:26.352Z,99110.73
2022-12-20T05:36:54.726Z,99116.30
2022-12-20T05:39:23.836Z,99114.17
2022-12-20T05:41:53.606Z,99111.55
2022-12-20T05:44:22.735Z,99110.24
2022-12-20T05:46:52.469Z,99109.58
2022-12-20T05:49:22.055Z,99109.16
2022-12-20T05:51:50.093Z,99109.31
2022-12-20T05:54:19.905Z,99106.65
2022-12-20T05:57:05.556Z,99105.63
2022-12-20T05:59:37.961Z,99107.91
2022-12-20T06:02:07.078Z,99116.08
2022-12-20T06:04:36.017Z,99120.27
2022-12-20T06:07:05.882Z,99122.42
2022-12-20T06:09:33.941Z,99122.42
2022-12-20T06:12:04.439Z,99121.59
2022-12-20T06:14:33.561Z,99122.04
2022-12-20T06:17:02.588Z,99116.89
2022-12-20T06:19:31.664Z,99115.63
2022-12-20T06:22:00.634Z,99114.36
2022-12-20T06:24:30.319Z,99117.53
2022-12-20T06:26:58.162Z,99120.64
2022-12-20T06:29:31.918Z,99119.22
2022-12-20T06:32:05.013Z,99114.71
2022-12-20T06:34:33.839Z,99118.21
2022-12-20T06:37:05.685Z,99118.41
2022-12-20T06:39:40.157Z,99124.00
2022-12-20T06:42:18.827Z,99115.82
2022-12-20T06:44:47.907Z,99114.47
2022-12-20T06:47:16.382Z,99110.81
2022-12-20T06:49:44.289Z,99119.99
2022-12-20T06:52:13.948Z,99109.47
2022-12-20T06:54:46.292Z,99106.73
2022-12-20T06:57:14.478Z,99105.66
2022-12-20T06:59:43.483Z,99106.84
2022-12-20T07:02:13.901Z,99107.86
2022-12-20T07:04:41.986Z,99110.20
2022-12-20T07:07:12.062Z,99113.07
2022-12-20T07:09:40.989Z,99107.69
2022-12-20T07:12:10.195Z,99113.88
2022-12-20T07:14:37.881Z,99110.58
2022-12-20T07:17:07.119Z,99109.22
2022-12-20T07:19:37.681Z,99106.73
2022-12-20T07:22:06.089Z,99098.73
2022-12-20T07:24:34.299Z,99098.06
2022-12-20T07:27:04.278Z,99094.77
2022-12-20T07:29:32.358Z,99094.71
2022-12-20T07:32:00.452Z,99094.64
2022-12-20T07:34:28.120Z,99095.09
2022-12-20T07:36:57.840Z,99093.05
2022-12-20T07:39:25.928Z,99086.34
2022-12-20T07:41:54.984Z,99080.34
2022-12-20T07:44:23.818Z,99081.73
2022-12-20T07:46:51.570Z,99085.64
2022-12-20T07:49:19.395Z,99085.54
2022-12-20T07:51:51.438Z,99080.34
2022-12-20T07:54:27.727Z,99079.17
2022-12-20T07:57:00.945Z,99076.78
2022-12-20T07:59:36.334Z,99078.62
2022-12-20T08:02:05.146Z,99073.03
2022-12-20T08:04:34.022Z,99074.13
2022-12-20T08:07:03.090Z,99065.70
2022-12-20T08:09:35.097Z,99064.45
2022-12-20T08:12:03.235Z,99061.28
2022-12-20T08:14:31.885Z,99059.09
2022-12-20T08:16:59.966Z,99058.16
2022-12-20T08:19:32.254Z,99062.61
2022-12-20T08:21:57.241Z,99056.83
2022-12-20T08:24:25.586Z,99057.41
2022-12-20T08:26:53.229Z,99058.59
2022-12-20T08:29:21.148Z,99057.88
2022-12-20T08:31:50.621Z,99054.10
2022-12-20T08:34:18.709Z,99061.61
2022-12-20T08:36:46.590Z,99054.48
2022-12-20T08:39:14.192Z,99061.28
2022-12-20T08:41:41.889Z,99059.20
2022-12-20T08:44:10.347Z,99054.52
2022-12-20T08:46:38.518Z,99056.73
2022-12-20T08:49:06.579Z,99050.49
2022-12-20T08:51:34.238Z,99054.61
2022-12-20T08:54:03.825Z,99048.31
2022-12-20T08:56:31.610Z,99051.33
2022-12-20T08:58:59.277Z,99047.87
2022-12-20T09:01:28.887Z,99048.41
2022-12-20T09:03:56.695Z,99042.83
2022-12-20T09:06:24.822Z,99045.48
2022-12-20T09:08:52.554Z,99050.48
2022-12-20T09:11:25.774Z,99043.27
2022-12-20T09:13:56.085Z,99038.34
2022-12-20T09:16:27.792Z,99039.59
2022-12-20T09:19:05.423Z,99030.00
2022-12-20T09:21:30.904Z,99032.81
2022-12-20T09:23:58.708Z,99023.74
2022-12-20T09:26:27.038Z,99030.16
2022-12-20T09:28:55.047Z,99022.34
2022-12-20T09:31:26.392Z,99019.97
2022-12-20T09:33:57.300Z,99012.33
2022-12-20T09:36:27.620Z,99015.63
2022-12-20T09:38:55.585Z,99005.22
2022-12-20T09:41:40.231Z,99003.08
2022-12-20T09:44:13.430Z,98997.02
2022-12-20T09:46:42.669Z,98991.19
2022-12-20T09:49:17.768Z,98985.95
2022-12-20T09:52:19.733Z,98985.87
2022-12-20T09:55:23.325Z,98982.95
2022-12-20T09:58:22.882Z,98979.34
2022-12-20T10:00:54.215Z,98972.08
2022-12-20T10:03:32.903Z,98974.48
2022-12-20T10:06:34.743Z,98973.22
2022-12-20T10:09:05.852Z,98968.14
2022-12-20T10:11:50.924Z,98965.58
2022-12-20T10:14:55.841Z,98959.88
2022-12-20T10:17:46.883Z,98959.17
2022-12-20T10:20:35.063Z,98959.95
2022-12-20T10:23:44.389Z,98943.33
2022-12-20T10:26:13.525Z,98940.80
2022-12-20T10:28:41.285Z,98931.97
2022-12-20T10:31:13.563Z,98925.85
2022-12-20T10:33:42.504Z,98920.02
2022-12-20T10:36:30.025Z,98916.22
2022-12-20T10:39:00.946Z,98909.52
2022-12-20T10:41:42.603Z,98901.45
2022-12-20T10:44:26.168Z,98896.55
2022-12-20T10:46:59.712Z,98889.33
2022-12-20T10:49:36.451Z,98879.53
2022-12-20T10:52:14.176Z,98874.97
2022-12-20T10:54:46.178Z,98872.44
2022-12-20T10:57:34.857Z,98864.84
2022-12-20T11:00:08.362Z,98855.49
2022-12-20T11:02:42.472Z,98846.33
2022-12-20T11:05:17.222Z,98846.84
2022-12-20T11:10:32.841Z,98835.86
2022-12-20T11:13:03.057Z,98834.22
2022-12-20T11:15:35.071Z,98829.09
2022-12-20T11:18:17.022Z,98824.61
2022-12-20T11:21:00.406Z,98817.23
2022-12-20T11:23:57.852Z,98814.11
2022-12-20T11:26:42.899Z,98806.23
2022-12-20T11:29:31.181Z,98805.01
2022-12-20T11:32:44.578Z,98801.16
2022-12-20T11:35:35.044Z,98797.27
2022-12-20T11:38:20.034Z,98798.97
2022-12-20T11:40:55.579Z,98802.01
2022-12-20T11:44:15.860Z,98800.54
2022-12-20T11:46:34.267Z,98798.16
2022-12-20T11:50:00.545Z,98789.66
2022-12-20T11:52:48.383Z,98784.64
2022-12-20T11:55:24.640Z,98776.67
2022-12-20T11:58:21.696Z,98775.42
2022-12-20T12:00:37.226Z,98777.33
2022-12-20T12:03:16.639Z,98777.14
2022-12-20T12:05:48.914Z,98774.33
2022-12-20T12:08:34.634Z,98776.08
2022-12-20T12:11:39.921Z,98767.16
2022-12-20T12:13:44.617Z,98773.11
2022-12-20T12:16:20.382Z,98769.44
2022-12-20T12:18:48.679Z,98767.85
2022-12-20T12:21:35.815Z,98765.99
2022-12-20T12:24:38.208Z,98758.55
2022-12-20T12:27:15.766Z,98746.32
2022-12-20T12:29:39.784Z,98738.59
2022-12-20T12:32:25.321Z,98739.12
2022-12-20T12:35:23.504Z,98736.42
2022-12-20T12:38:27.098Z,98737.69
2022-12-20T12:41:35.175Z,98732.05
2022-12-20T12:44:34.160Z,98728.82
2022-12-20T12:47:06.674Z,98733.55
2022-12-20T12:49:34.860Z,98733.77
2022-12-20T12:52:04.951Z,98722.02
2022-12-20T12:54:39.700Z,98724.13
2022-12-20T12:57:14.516Z,98727.97
2022-12-20T12:59:47.516Z,98730.77
2022-12-20T13:02:20.866Z,98733.33
2022-12-20T13:05:10.703Z,98739.90
2022-12-20T13:07:44.146Z,98733.16
2022-12-20T13:10:22.199Z,98723.53
2022-12-20T13:12:58.311Z,98718.09
2022-12-20T13:15:33.170Z,98722.53
2022-12-20T13:18:10.926Z,98720.87
2022-12-20T13:20:38.942Z,98725.61
2022-12-20T13:23:18.869Z,98722.95
2022-12-20T13:25:52.789Z,98717.06
2022-12-20T13:28:29.367Z,98710.88
2022-12-20T13:31:09.569Z,98712.87
2022-12-20T13:33:48.581Z,98702.67
2022-12-20T13:36:30.733Z,98713.48
2022-12-20T13:39:23.382Z,98707.05
2022-12-20T13:42:17.671Z,98710.42
2022-12-20T13:44:47.200Z,98713.55
2022-12-20T13:47:31.067Z,98705.78
2022-12-20T13:50:20.685Z,98704.86
2022-12-20T13:52:48.830Z,98705.39
2022-12-20T13:55:24.242Z,98701.94
2022-12-20T13:57:53.675Z,98706.13
2022-12-20T14:00:26.629Z,98709.56
2022-12-20T14:02:55.951Z,98706.38
2022-12-20T14:05:26.398Z,98708.18
2022-12-20T14:08:04.767Z,98706.05
2022-12-20T14:10:35.010Z,98709.73
2022-12-20T14:13:25.130Z,98705.19
2022-12-20T14:15:54.041Z,98700.08
2022-12-20T14:18:25.335Z,98689.32
2022-12-20T14:21:04.537Z,98683.34
2022-12-20T14:23:48.914Z,98684.27
2022-12-20T14:26:25.258Z,98682.55
2022-12-20T14:28:56.605Z,98674.97
2022-12-20T14:31:40.605Z,98666.87
2022-12-20T14:34:29.075Z,98671.70
2022-12-20T14:36:56.497Z,98664.12
2022-12-20T14:39:33.683Z,98656.50
2022-12-20T14:42:13.310Z,98658.13
2022-12-20T14:44:41.181Z,98669.16
2022-12-20T14:47:25.474Z,98674.56
2022-12-20T14:50:00.863Z,98671.16
2022-12-20T14:52:39.146Z,98669.66
2022-12-20T14:55:27.389Z,98668.20
2022-12-20T14:57:56.973Z,98671.48
2022-12-20T15:00:31.278Z,98663.95
2022-12-20T15:03:13.455Z,98662.00
2022-12-20T15:05:51.055Z,98649.35
2022-12-20T15:08:31.574Z,98637.27
2022-12-20T15:11:11.087Z,98637.88
2022-12-20T15:13:43.169Z,98639.83
2022-12-20T15:16:30.780Z,98654.03
2022-12-20T15:19:01.463Z,98645.73
2022-12-20T15:21:40.432Z,98640.09
2022-12-20T15:24:22.858Z,98637.37
2022-12-20T15:26:50.447Z,98631.97
2022-12-20T15:29:24.673Z,98634.19
2022-12-20T15:32:06.996Z,98631.70
2022-12-20T15:34:37.846Z,98633.99
2022-12-20T15:37:06.329Z,98634.95
2022-12-20T15:39:34.403Z,98635.92
2022-12-20T15:42:04.532Z,98631.31
2022-12-20T15:44:35.465Z,98631.23
2022-12-20T15:47:03.851Z,98630.88
2022-12-20T15:49:32.738Z,98636.09
2022-12-20T15:52:00.358Z,98636.33
2022-12-20T15:54:32.322Z,98631.69
2022-12-20T15:57:06.355Z,98636.58
2022-12-20T15:59:59.647Z,98633.57
2022-12-20T16:02:04.254Z,98631.57
2022-12-20T16:04:32.245Z,98632.05
2022-12-20T16:07:00.176Z,98635.70
2022-12-20T16:09:27.944Z,98634.09
2022-12-20T16:11:56.667Z,98628.44
2022-12-20T16:14:26.481Z,98629.92
2022-12-20T16:16:54.096Z,98627.27
2022-12-20T16:19:21.783Z,98626.11
2022-12-20T16:21:51.954Z,98621.78
2022-12-20T16:24:20.989Z,98624.42
2022-12-20T16:26:49.571Z,98621.18
2022-12-20T16:29:17.331Z,98623.22
2022-12-20T16:31:45.166Z,98622.94
2022-12-20T16:34:16.440Z,98621.77
2022-12-20T16:36:44.947Z,98617.73
2022-12-20T16:39:12.461Z,98620.32
2022-12-20T16:41:44.276Z,98623.69
2022-12-20T16:44:16.716Z,98617.08
2022-12-20T16:46:45.023Z,98611.52
2022-12-20T16:49:20.080Z,98605.86
2022-12-20T16:51:45.869Z,98609.74
2022-12-20T16:54:22.035Z,98609.66
2022-12-20T16:56:53.835Z,98612.30
2022-12-20T16:59:28.149Z,98610.18
2022-12-20T17:01:57.337Z,98606.94
2022-12-20T17:04:26.187Z,98610.53
2022-12-20T17:06:55.633Z,98601.76
2022-12-20T17:09:23.618Z,98596.67
2022-12-20T17:11:51.356Z,98593.67
2022-12-20T17:14:21.130Z,98594.70
2022-12-20T17:16:49.448Z,98582.14
2022-12-20T17:19:17.694Z,98583.41
2022-12-20T17:24:34.825Z,98582.44
2022-12-20T17:27:02.830Z,98578.63
2022-12-20T17:29:30.626Z,98586.78
2022-12-20T17:31:58.676Z,98590.73
2022-12-20T17:34:30.206Z,98582.94
2022-12-20T17:36:58.622Z,98582.08
2022-12-20T17:39:26.690Z,98578.55
2022-12-20T17:41:55.090Z,98576.91
2022-12-20T17:44:28.634Z,98572.95
2022-12-20T17:46:58.681Z,98568.71
2022-12-20T17:49:26.707Z,98567.63
2022-12-20T17:51:56.003Z,98564.61
2022-12-20T17:54:26.220Z,98566.94
2022-12-20T17:56:54.487Z,98570.84
2022-12-20T17:59:28.027Z,98572.73
2022-12-20T18:01:55.924Z,98571.53
2022-12-20T18:04:23.765Z,98571.24
2022-12-20T18:06:51.757Z,98574.83
2022-12-20T18:09:21.343Z,98574.45
2022-12-20T18:11:49.311Z,98573.27
2022-12-20T18:14:17.667Z,98573.19
2022-12-20T18:16:45.559Z,98579.20
2022-12-20T18:19:17.445Z,98579.92
2022-12-20T18:21:45.195Z,98579.83
2022-12-20T18:24:15.435Z,98578.73
2022-12-20T18:26:44.369Z,98576.30
2022-12-20T18:29:12.358Z,98568.84
2022-12-20T18:31:40.079Z,98570.65
2022-12-20T18:34:08.059Z,98571.68
2022-12-20T18:36:37.683Z,98560.23
2022-12-20T18:39:11.601Z,98557.31
2022-12-20T18:41:41.571Z,98557.51
2022-12-20T18:44:13.145Z,98546.53
2022-12-20T18:46:46.651Z,98554.77
2022-12-20T18:49:14.421Z,98546.39
2022-12-20T18:51:44.526Z,98543.98
2022-12-20T18:54:14.277Z,98539.23
2022-12-20T18:56:42.000Z,98540.32
2022-12-20T18:59:12.456Z,98544.59
2022-12-20T19:01:42.198Z,98546.20
2022-12-20T19:04:10.869Z,98536.36
2022-12-20T19:06:39.246Z,98546.84
2022-12-20T19:09:12.639Z,98549.68
2022-12-20T19:11:41.410Z,98539.05
2022-12-20T19:14:11.934Z,98548.78
2022-12-20T19:16:43.327Z,98551.94
2022-12-20T19:19:11.535Z,98552.45
2022-12-20T19:21:41.779Z,98553.06
2022-12-20T19:24:10.995Z,98543.61
2022-12-20T19:26:39.289Z,98545.64
2022-12-20T19:29:08.170Z,98545.73
2022-12-20T19:31:37.719Z,98558.71
2022-12-20T19:34:12.390Z,98554.95
2022-12-20T19:36:43.575Z,98557.02
2022-12-20T19:39:21.843Z,98554.06
2022-12-20T19:42:21.651Z,98553.77
2022-12-20T19:44:20.580Z,98552.65
2022-12-20T19:46:49.265Z,98551.46
2022-12-20T19:49:17.394Z,98546.13
2022-12-20T19:51:47.910Z,98533.95
2022-12-20T19:54:15.688Z,98539.54
2022-12-20T19:56:43.918Z,98539.54
2022-12-20T19:59:13.430Z,98538.13
2022-12-20T20:01:41.074Z,98535.20
2022-12-20T20:04:09.531Z,98538.04
2022-12-20T20:06:37.368Z,98539.27
2022-12-20T20:09:07.184Z,98536.86
2022-12-20T20:11:34.944Z,98533.33
2022-12-20T20:14:03.493Z,98541.65
2022-12-20T20:16:31.968Z,98540.75
2022-12-20T20:18:59.802Z,98537.83
2022-12-20T20:21:29.125Z,98536.22
2022-12-20T20:23:58.921Z,98546.38
2022-12-20T20:26:29.139Z,98529.99
2022-12-20T20:28:56.804Z,98534.08
2022-12-20T20:31:25.043Z,98534.49
2022-12-20T20:33:53.221Z,98530.77
2022-12-20T20:36:23.619Z,98528.04
2022-12-20T20:38:51.866Z,98527.36
2022-12-20T20:41:20.094Z,98527.78
2022-12-20T20:43:48.421Z,98530.60
2022-12-20T20:46:17.281Z,98528.30
2022-12-20T20:48:45.175Z,98532.63
2022-12-20T20:51:13.921Z,98530.37
2022-12-20T20:53:42.576Z,98530.16
2022-12-20T20:56:11.235Z,98528.45
2022-12-20T20:58:39.514Z,98523.31
2022-12-20T21:01:08.952Z,98527.27
2022-12-20T21:03:37.367Z,98522.09
2022-12-20T21:06:37.288Z,98522.09
2022-12-20T21:08:38.663Z,98522.61
2022-12-20T21:11:08.254Z,98518.95
2022-12-20T21:13:38.284Z,98512.56
2022-12-20T21:16:17.785Z,98509.92
2022-12-20T21:18:52.785Z,98506.58
2022-12-20T21:21:21.198Z,98509.02
2022-12-20T21:23:49.337Z,98504.34
2022-12-20T21:26:20.491Z,98506.45
2022-12-20T21:28:49.345Z,98501.00
2022-12-20T21:31:19.076Z,98501.70
2022-12-20T21:33:47.886Z,98496.24
2022-12-20T21:36:18.847Z,98492.06
2022-12-20T21:38:52.586Z,98490.52
2022-12-20T21:41:27.344Z,98484.45
2022-12-20T21:43:58.448Z,98487.98
2022-12-20T21:46:29.475Z,98488.27
2022-12-20T21:48:58.582Z,98482.30
2022-12-20T21:51:28.073Z,98482.58
2022-12-20T21:53:59.143Z,98479.75
2022-12-20T21:56:31.661Z,98471.76
2022-12-20T21:59:01.842Z,98478.86
2022-12-20T22:01:30.929Z,98479.15
2022-12-20T22:04:05.546Z,98477.31
2022-12-20T22:06:34.933Z,98468.19
2022-12-20T22:09:06.862Z,98451.58
2022-12-20T22:11:36.852Z,98448.34
2022-12-20T22:14:05.876Z,98453.61
2022-12-20T22:16:34.450Z,98443.59
2022-12-20T22:19:03.331Z,98445.80
2022-12-20T22:21:33.569Z,98440.91
2022-12-20T22:24:01.241Z,98434.41
2022-12-20T22:26:32.379Z,98431.55
2022-12-20T22:29:06.613Z,98425.77
2022-12-20T22:31:37.672Z,98431.55
2022-12-20T22:34:06.333Z,98427.31
2022-12-20T22:36:35.267Z,98418.29
2022-12-20T22:39:03.303Z,98410.91
2022-12-20T22:41:34.252Z,98409.52
2022-12-20T22:44:04.451Z,98404.55
2022-12-20T22:46:33.171Z,98410.10
2022-12-20T22:49:01.144Z,98404.74
2022-12-20T22:51:30.311Z,98407.83
2022-12-20T22:53:59.055Z,98405.20
2022-12-20T22:56:27.406Z,98403.05
2022-12-20T22:58:55.460Z,98397.20
2022-12-20T23:01:23.504Z,98399.66
2022-12-20T23:03:51.525Z,98403.75
2022-12-20T23:06:20.915Z,98397.81
2022-12-20T23:08:49.114Z,98402.41
2022-12-20T23:11:42.504Z,98394.71
2022-12-20T23:14:36.043Z,98395.94
2022-12-20T23:17:05.566Z,98392.30
2022-12-20T23:19:52.299Z,98386.72
2022-12-20T23:22:40.458Z,98394.05
2022-12-20T23:25:15.577Z,98381.81
2022-12-20T23:27:46.035Z,98374.56
2022-12-20T23:30:17.812Z,98369.41
2022-12-20T23:32:45.688Z,98368.03
2022-12-20T23:35:16.709Z,98369.02
2022-12-20T23:37:45.293Z,98365.59
2022-12-20T23:40:15.765Z,98366.81
2022-12-20T23:42:44.168Z,98376.48
2022-12-20T23:45:12.568Z,98377.47
2022-12-20T23:47:40.243Z,98381.04
2022-12-20T23:50:08.948Z,98377.31
2022-12-20T23:52:36.622Z,98379.95
2022-12-20T23:55:05.336Z,98377.03
2022-12-20T23:57:33.013Z,98376.70
